sensor_id;sensor_type;location;lat;lon;timestamp;temperature;humidity
41547;DHT22;27271;45.412;10.852;2022-07-10T00:00:34;21.40;73.40
41547;DHT22;27271;45.412;10.852;2022-07-10T00:04:02;21.40;73.90
41547;DHT22;27271;45.412;10.852;2022-07-10T00:07:28;21.40;73.20
41547;DHT22;27271;45.412;10.852;2022-07-10T00:10:53;21.30;74.90
41547;DHT22;27271;45.412;10.852;2022-07-10T00:14:26;21.30;75.00
41547;DHT22;27271;45.412;10.852;2022-07-10T00:17:49;21.20;78.80
41547;DHT22;27271;45.412;10.852;2022-07-10T00:21:12;21.00;82.20
41547;DHT22;27271;45.412;10.852;2022-07-10T00:24:34;20.80;81.90
41547;DHT22;27271;45.412;10.852;2022-07-10T00:28:17;20.60;81.20
41547;DHT22;27271;45.412;10.852;2022-07-10T00:31:41;20.40;81.80
41547;DHT22;27271;45.412;10.852;2022-07-10T00:35:12;20.30;82.70
41547;DHT22;27271;45.412;10.852;2022-07-10T00:39:33;20.10;84.00
41547;DHT22;27271;45.412;10.852;2022-07-10T00:42:56;19.90;89.90
41547;DHT22;27271;45.412;10.852;2022-07-10T00:46:18;19.70;89.20
41547;DHT22;27271;45.412;10.852;2022-07-10T00:49:50;19.50;93.10
41547;DHT22;27271;45.412;10.852;2022-07-10T00:53:13;19.40;92.60
41547;DHT22;27271;45.412;10.852;2022-07-10T00:56:39;19.40;92.60
41547;DHT22;27271;45.412;10.852;2022-07-10T01:00:38;19.30;93.50
41547;DHT22;27271;45.412;10.852;2022-07-10T01:04:03;19.20;95.40
41547;DHT22;27271;45.412;10.852;2022-07-10T01:07:26;19.10;97.00
41547;DHT22;27271;45.412;10.852;2022-07-10T01:10:59;19.00;97.50
41547;DHT22;27271;45.412;10.852;2022-07-10T01:14:35;18.80;98.40
41547;DHT22;27271;45.412;10.852;2022-07-10T01:18:07;18.90;99.30
41547;DHT22;27271;45.412;10.852;2022-07-10T01:21:43;18.80;99.90
41547;DHT22;27271;45.412;10.852;2022-07-10T01:25:08;18.70;99.90
41547;DHT22;27271;45.412;10.852;2022-07-10T01:28:58;18.70;99.90
41547;DHT22;27271;45.412;10.852;2022-07-10T01:32:39;18.70;99.90
41547;DHT22;27271;45.412;10.852;2022-07-10T01:36:27;18.60;99.90
41547;DHT22;27271;45.412;10.852;2022-07-10T01:39:56;18.50;99.90
41547;DHT22;27271;45.412;10.852;2022-07-10T01:43:24;18.50;99.90
41547;DHT22;27271;45.412;10.852;2022-07-10T01:46:49;18.50;99.90
41547;DHT22;27271;45.412;10.852;2022-07-10T01:50:16;18.50;99.90
41547;DHT22;27271;45.412;10.852;2022-07-10T01:53:40;18.50;99.90
41547;DHT22;27271;45.412;10.852;2022-07-10T01:57:07;18.40;99.90
41547;DHT22;27271;45.412;10.852;2022-07-10T02:00:29;18.30;99.90
41547;DHT22;27271;45.412;10.852;2022-07-10T02:03:51;18.20;99.90
41547;DHT22;27271;45.412;10.852;2022-07-10T02:07:32;18.10;99.90
41547;DHT22;27271;45.412;10.852;2022-07-10T02:10:54;18.10;99.90
41547;DHT22;27271;45.412;10.852;2022-07-10T02:14:17;18.20;99.90
41547;DHT22;27271;45.412;10.852;2022-07-10T02:17:39;18.20;99.90
41547;DHT22;27271;45.412;10.852;2022-07-10T02:21:10;18.10;99.90
41547;DHT22;27271;45.412;10.852;2022-07-10T02:24:33;18.00;99.90
41547;DHT22;27271;45.412;10.852;2022-07-10T02:28:01;18.10;99.90
41547;DHT22;27271;45.412;10.852;2022-07-10T02:31:24;18.10;99.90
41547;DHT22;27271;45.412;10.852;2022-07-10T02:34:52;18.10;99.90
41547;DHT22;27271;45.412;10.852;2022-07-10T02:38:26;18.00;99.90
41547;DHT22;27271;45.412;10.852;2022-07-10T02:41:54;17.90;99.90
41547;DHT22;27271;45.412;10.852;2022-07-10T02:45:16;17.90;99.90
41547;DHT22;27271;45.412;10.852;2022-07-10T02:48:40;17.90;99.90
41547;DHT22;27271;45.412;10.852;2022-07-10T02:52:03;17.80;99.90
41547;DHT22;27271;45.412;10.852;2022-07-10T02:55:33;17.80;99.90
41547;DHT22;27271;45.412;10.852;2022-07-10T02:58:58;17.80;99.90
41547;DHT22;27271;45.412;10.852;2022-07-10T03:02:23;17.70;99.90
41547;DHT22;27271;45.412;10.852;2022-07-10T03:05:58;17.70;99.90
41547;DHT22;27271;45.412;10.852;2022-07-10T03:09:24;17.70;99.90
41547;DHT22;27271;45.412;10.852;2022-07-10T03:12:47;17.70;99.90
41547;DHT22;27271;45.412;10.852;2022-07-10T03:16:09;17.80;99.90
41547;DHT22;27271;45.412;10.852;2022-07-10T03:19:33;17.90;99.90
41547;DHT22;27271;45.412;10.852;2022-07-10T03:22:58;17.90;99.90
41547;DHT22;27271;45.412;10.852;2022-07-10T03:26:20;17.90;99.90
41547;DHT22;27271;45.412;10.852;2022-07-10T03:29:50;17.90;99.90
41547;DHT22;27271;45.412;10.852;2022-07-10T03:33:14;17.90;99.90
41547;DHT22;27271;45.412;10.852;2022-07-10T03:36:36;17.90;99.90
41547;DHT22;27271;45.412;10.852;2022-07-10T03:40:01;17.90;99.90
41547;DHT22;27271;45.412;10.852;2022-07-10T03:43:26;17.80;99.90
41547;DHT22;27271;45.412;10.852;2022-07-10T03:46:51;17.80;99.90
41547;DHT22;27271;45.412;10.852;2022-07-10T03:50:14;17.90;99.90
41547;DHT22;27271;45.412;10.852;2022-07-10T03:53:43;18.00;99.90
41547;DHT22;27271;45.412;10.852;2022-07-10T03:57:05;18.00;99.90
41547;DHT22;27271;45.412;10.852;2022-07-10T04:00:46;18.10;99.90
41547;DHT22;27271;45.412;10.852;2022-07-10T04:04:09;18.10;99.90
41547;DHT22;27271;45.412;10.852;2022-07-10T04:07:31;18.10;99.90
41547;DHT22;27271;45.412;10.852;2022-07-10T04:10:53;18.10;99.90
41547;DHT22;27271;45.412;10.852;2022-07-10T04:14:15;18.10;99.90
41547;DHT22;27271;45.412;10.852;2022-07-10T04:17:38;18.10;99.90
41547;DHT22;27271;45.412;10.852;2022-07-10T04:21:07;18.20;99.90
41547;DHT22;27271;45.412;10.852;2022-07-10T04:24:43;18.20;99.90
41547;DHT22;27271;45.412;10.852;2022-07-10T04:28:05;18.20;99.90
41547;DHT22;27271;45.412;10.852;2022-07-10T04:31:30;18.30;99.90
41547;DHT22;27271;45.412;10.852;2022-07-10T04:34:55;18.30;99.90
41547;DHT22;27271;45.412;10.852;2022-07-10T04:38:17;18.30;99.90
41547;DHT22;27271;45.412;10.852;2022-07-10T04:41:42;18.30;99.90
41547;DHT22;27271;45.412;10.852;2022-07-10T04:45:04;18.40;99.90
41547;DHT22;27271;45.412;10.852;2022-07-10T04:48:26;18.50;99.90
41547;DHT22;27271;45.412;10.852;2022-07-10T04:51:48;18.70;99.90
41547;DHT22;27271;45.412;10.852;2022-07-10T04:55:16;19.10;99.90
41547;DHT22;27271;45.412;10.852;2022-07-10T04:58:38;19.50;99.90
41547;DHT22;27271;45.412;10.852;2022-07-10T05:02:05;20.00;99.90
41547;DHT22;27271;45.412;10.852;2022-07-10T05:05:32;20.20;99.90
41547;DHT22;27271;45.412;10.852;2022-07-10T05:08:54;20.50;99.90
41547;DHT22;27271;45.412;10.852;2022-07-10T05:12:16;21.10;99.90
41547;DHT22;27271;45.412;10.852;2022-07-10T05:15:39;21.60;99.90
41547;DHT22;27271;45.412;10.852;2022-07-10T05:19:01;22.10;99.90
41547;DHT22;27271;45.412;10.852;2022-07-10T05:22:27;23.40;98.80
41547;DHT22;27271;45.412;10.852;2022-07-10T05:25:50;25.00;94.20
41547;DHT22;27271;45.412;10.852;2022-07-10T05:29:13;26.60;89.20
41547;DHT22;27271;45.412;10.852;2022-07-10T05:32:45;27.90;78.50
41547;DHT22;27271;45.412;10.852;2022-07-10T05:36:08;29.20;76.30
41547;DHT22;27271;45.412;10.852;2022-07-10T05:39:34;30.50;69.30
41547;DHT22;27271;45.412;10.852;2022-07-10T05:42:57;31.50;66.40
41547;DHT22;27271;45.412;10.852;2022-07-10T05:46:19;32.30;62.50
41547;DHT22;27271;45.412;10.852;2022-07-10T05:49:41;33.10;61.00
41547;DHT22;27271;45.412;10.852;2022-07-10T05:53:03;33.80;59.30
41547;DHT22;27271;45.412;10.852;2022-07-10T05:56:28;34.40;57.00
41547;DHT22;27271;45.412;10.852;2022-07-10T05:59:50;34.30;55.90
41547;DHT22;27271;45.412;10.852;2022-07-10T06:03:17;34.80;54.60
41547;DHT22;27271;45.412;10.852;2022-07-10T06:06:45;35.00;53.70
41547;DHT22;27271;45.412;10.852;2022-07-10T06:10:10;35.50;52.80
41547;DHT22;27271;45.412;10.852;2022-07-10T06:13:39;35.50;52.20
41547;DHT22;27271;45.412;10.852;2022-07-10T06:17:02;36.10;50.70
41547;DHT22;27271;45.412;10.852;2022-07-10T06:20:29;36.20;49.70
41547;DHT22;27271;45.412;10.852;2022-07-10T06:23:52;36.30;50.10
41547;DHT22;27271;45.412;10.852;2022-07-10T06:27:18;36.40;48.40
41547;DHT22;27271;45.412;10.852;2022-07-10T06:30:40;36.40;47.90
41547;DHT22;27271;45.412;10.852;2022-07-10T06:34:09;36.40;48.10
41547;DHT22;27271;45.412;10.852;2022-07-10T06:37:34;36.40;47.60
41547;DHT22;27271;45.412;10.852;2022-07-10T06:40:56;37.00;48.10
41547;DHT22;27271;45.412;10.852;2022-07-10T06:44:18;37.30;46.90
41547;DHT22;27271;45.412;10.852;2022-07-10T06:47:43;37.80;47.50
41547;DHT22;27271;45.412;10.852;2022-07-10T06:51:21;38.00;46.90
41547;DHT22;27271;45.412;10.852;2022-07-10T06:54:43;38.70;45.20
41547;DHT22;27271;45.412;10.852;2022-07-10T06:58:20;39.00;44.40
41547;DHT22;27271;45.412;10.852;2022-07-10T07:01:42;39.00;44.80
41547;DHT22;27271;45.412;10.852;2022-07-10T07:05:08;39.10;43.30
41547;DHT22;27271;45.412;10.852;2022-07-10T07:08:33;39.30;43.80
41547;DHT22;27271;45.412;10.852;2022-07-10T07:11:58;39.60;42.50
41547;DHT22;27271;45.412;10.852;2022-07-10T07:15:20;40.00;40.60
41547;DHT22;27271;45.412;10.852;2022-07-10T07:18:45;40.10;42.40
41547;DHT22;27271;45.412;10.852;2022-07-10T07:22:14;40.40;39.10
41547;DHT22;27271;45.412;10.852;2022-07-10T07:26:19;40.80;37.90
41547;DHT22;27271;45.412;10.852;2022-07-10T07:29:41;40.50;38.20
41547;DHT22;27271;45.412;10.852;2022-07-10T07:33:04;40.50;35.10
41547;DHT22;27271;45.412;10.852;2022-07-10T07:50:40;39.50;35.60
41547;DHT22;27271;45.412;10.852;2022-07-10T07:54:51;39.40;33.90
41547;DHT22;27271;45.412;10.852;2022-07-10T07:58:58;39.80;34.70
41547;DHT22;27271;45.412;10.852;2022-07-10T08:02:23;40.60;34.90
41547;DHT22;27271;45.412;10.852;2022-07-10T08:05:45;40.90;35.10
41547;DHT22;27271;45.412;10.852;2022-07-10T08:09:10;40.30;34.70
41547;DHT22;27271;45.412;10.852;2022-07-10T08:12:54;40.30;36.90
41547;DHT22;27271;45.412;10.852;2022-07-10T08:20:13;41.20;31.80
41547;DHT22;27271;45.412;10.852;2022-07-10T08:23:44;40.60;32.70
41547;DHT22;27271;45.412;10.852;2022-07-10T08:27:51;39.90;33.70
41547;DHT22;27271;45.412;10.852;2022-07-10T08:31:26;39.80;33.80
41547;DHT22;27271;45.412;10.852;2022-07-10T08:35:40;40.10;32.50
41547;DHT22;27271;45.412;10.852;2022-07-10T08:39:25;40.50;34.10
41547;DHT22;27271;45.412;10.852;2022-07-10T08:43:03;40.90;32.40
41547;DHT22;27271;45.412;10.852;2022-07-10T08:46:40;40.00;33.60
41547;DHT22;27271;45.412;10.852;2022-07-10T08:50:33;40.60;33.80
41547;DHT22;27271;45.412;10.852;2022-07-10T08:59:17;40.10;34.60
41547;DHT22;27271;45.412;10.852;2022-07-10T09:02:42;40.30;34.50
41547;DHT22;27271;45.412;10.852;2022-07-10T09:07:21;40.20;35.10
41547;DHT22;27271;45.412;10.852;2022-07-10T09:11:19;39.60;34.90
41547;DHT22;27271;45.412;10.852;2022-07-10T09:14:44;38.80;36.50
41547;DHT22;27271;45.412;10.852;2022-07-10T09:23:22;38.90;34.70
41547;DHT22;27271;45.412;10.852;2022-07-10T09:27:05;38.30;36.00
41547;DHT22;27271;45.412;10.852;2022-07-10T09:30:39;38.60;36.40
41547;DHT22;27271;45.412;10.852;2022-07-10T09:34:17;38.50;36.90
41547;DHT22;27271;45.412;10.852;2022-07-10T09:37:59;37.70;36.60
41547;DHT22;27271;45.412;10.852;2022-07-10T09:41:39;37.10;36.00
41547;DHT22;27271;45.412;10.852;2022-07-10T09:49:31;38.10;35.70
41547;DHT22;27271;45.412;10.852;2022-07-10T09:53:01;38.20;35.90
41547;DHT22;27271;45.412;10.852;2022-07-10T09:56:51;38.60;35.50
41547;DHT22;27271;45.412;10.852;2022-07-10T10:01:08;38.30;36.90
41547;DHT22;27271;45.412;10.852;2022-07-10T10:04:33;37.80;35.30
41547;DHT22;27271;45.412;10.852;2022-07-10T10:08:17;38.20;35.40
41547;DHT22;27271;45.412;10.852;2022-07-10T10:11:41;37.20;34.30
41547;DHT22;27271;45.412;10.852;2022-07-10T10:15:06;37.20;37.20
41547;DHT22;27271;45.412;10.852;2022-07-10T10:18:29;36.70;36.70
41547;DHT22;27271;45.412;10.852;2022-07-10T10:21:54;36.30;37.40
41547;DHT22;27271;45.412;10.852;2022-07-10T10:25:16;36.40;39.40
41547;DHT22;27271;45.412;10.852;2022-07-10T10:28:40;36.60;36.20
41547;DHT22;27271;45.412;10.852;2022-07-10T10:32:03;36.10;37.30
41547;DHT22;27271;45.412;10.852;2022-07-10T10:35:45;36.80;37.30
41547;DHT22;27271;45.412;10.852;2022-07-10T10:42:40;35.50;38.20
41547;DHT22;27271;45.412;10.852;2022-07-10T10:46:23;35.30;38.00
41547;DHT22;27271;45.412;10.852;2022-07-10T10:53:43;35.90;38.70
41547;DHT22;27271;45.412;10.852;2022-07-10T10:57:16;36.00;37.80
41547;DHT22;27271;45.412;10.852;2022-07-10T11:00:38;35.80;39.30
41547;DHT22;27271;45.412;10.852;2022-07-10T11:07:54;35.30;39.20
41547;DHT22;27271;45.412;10.852;2022-07-10T11:14:56;35.00;40.40
41547;DHT22;27271;45.412;10.852;2022-07-10T11:18:20;35.30;40.80
41547;DHT22;27271;45.412;10.852;2022-07-10T11:21:46;35.30;40.20
41547;DHT22;27271;45.412;10.852;2022-07-10T11:25:19;35.20;40.60
41547;DHT22;27271;45.412;10.852;2022-07-10T11:28:51;35.30;40.40
41547;DHT22;27271;45.412;10.852;2022-07-10T11:32:16;35.10;40.40
41547;DHT22;27271;45.412;10.852;2022-07-10T11:35:39;34.50;39.80
41547;DHT22;27271;45.412;10.852;2022-07-10T11:39:06;34.70;40.40
41547;DHT22;27271;45.412;10.852;2022-07-10T11:42:53;34.40;42.70
41547;DHT22;27271;45.412;10.852;2022-07-10T11:46:49;34.50;41.90
41547;DHT22;27271;45.412;10.852;2022-07-10T11:50:12;34.70;40.90
41547;DHT22;27271;45.412;10.852;2022-07-10T11:53:35;34.60;40.20
41547;DHT22;27271;45.412;10.852;2022-07-10T11:57:05;34.50;39.30
41547;DHT22;27271;45.412;10.852;2022-07-10T12:00:30;34.20;39.50
41547;DHT22;27271;45.412;10.852;2022-07-10T12:03:56;34.10;42.00
41547;DHT22;27271;45.412;10.852;2022-07-10T12:07:20;34.70;41.00
41547;DHT22;27271;45.412;10.852;2022-07-10T12:10:45;35.20;42.30
41547;DHT22;27271;45.412;10.852;2022-07-10T12:14:17;35.60;39.70
41547;DHT22;27271;45.412;10.852;2022-07-10T12:17:50;35.70;40.80
41547;DHT22;27271;45.412;10.852;2022-07-10T12:21:13;35.20;41.50
41547;DHT22;27271;45.412;10.852;2022-07-10T12:24:36;35.00;40.10
41547;DHT22;27271;45.412;10.852;2022-07-10T12:27:58;35.10;40.20
41547;DHT22;27271;45.412;10.852;2022-07-10T12:31:25;34.10;42.50
41547;DHT22;27271;45.412;10.852;2022-07-10T12:34:49;34.40;41.40
41547;DHT22;27271;45.412;10.852;2022-07-10T12:38:20;34.90;41.60
41547;DHT22;27271;45.412;10.852;2022-07-10T12:42:02;34.70;41.30
41547;DHT22;27271;45.412;10.852;2022-07-10T12:45:25;34.70;41.60
41547;DHT22;27271;45.412;10.852;2022-07-10T12:49:08;34.90;41.00
41547;DHT22;27271;45.412;10.852;2022-07-10T12:52:35;34.80;41.40
41547;DHT22;27271;45.412;10.852;2022-07-10T12:55:57;35.00;41.30
41547;DHT22;27271;45.412;10.852;2022-07-10T12:59:21;35.00;42.20
41547;DHT22;27271;45.412;10.852;2022-07-10T13:02:44;35.30;42.90
41547;DHT22;27271;45.412;10.852;2022-07-10T13:06:25;35.00;41.00
41547;DHT22;27271;45.412;10.852;2022-07-10T13:09:48;34.80;42.40
41547;DHT22;27271;45.412;10.852;2022-07-10T13:13:13;34.90;40.60
41547;DHT22;27271;45.412;10.852;2022-07-10T13:16:35;34.90;40.90
41547;DHT22;27271;45.412;10.852;2022-07-10T13:19:58;35.20;41.00
41547;DHT22;27271;45.412;10.852;2022-07-10T13:23:21;35.50;40.30
41547;DHT22;27271;45.412;10.852;2022-07-10T13:26:47;35.80;39.80
41547;DHT22;27271;45.412;10.852;2022-07-10T13:30:09;35.40;39.90
41547;DHT22;27271;45.412;10.852;2022-07-10T13:33:34;34.80;39.60
41547;DHT22;27271;45.412;10.852;2022-07-10T13:36:57;34.30;42.00
41547;DHT22;27271;45.412;10.852;2022-07-10T13:40:20;34.10;42.30
41547;DHT22;27271;45.412;10.852;2022-07-10T13:43:42;33.50;41.70
41547;DHT22;27271;45.412;10.852;2022-07-10T13:47:04;33.30;43.20
41547;DHT22;27271;45.412;10.852;2022-07-10T13:50:27;33.20;42.70
41547;DHT22;27271;45.412;10.852;2022-07-10T13:53:49;33.20;42.70
41547;DHT22;27271;45.412;10.852;2022-07-10T13:57:12;33.10;42.70
41547;DHT22;27271;45.412;10.852;2022-07-10T14:00:36;33.30;42.90
41547;DHT22;27271;45.412;10.852;2022-07-10T14:03:58;33.80;43.70
41547;DHT22;27271;45.412;10.852;2022-07-10T14:07:21;34.50;42.40
41547;DHT22;27271;45.412;10.852;2022-07-10T14:10:43;34.90;40.50
41547;DHT22;27271;45.412;10.852;2022-07-10T14:14:06;34.90;41.30
41547;DHT22;27271;45.412;10.852;2022-07-10T14:17:37;35.50;39.70
41547;DHT22;27271;45.412;10.852;2022-07-10T14:21:03;35.60;39.90
41547;DHT22;27271;45.412;10.852;2022-07-10T14:24:26;35.70;40.70
41547;DHT22;27271;45.412;10.852;2022-07-10T14:27:50;35.10;41.70
41547;DHT22;27271;45.412;10.852;2022-07-10T14:31:12;35.00;41.30
41547;DHT22;27271;45.412;10.852;2022-07-10T14:34:34;35.20;42.20
41547;DHT22;27271;45.412;10.852;2022-07-10T14:37:56;35.10;42.20
41547;DHT22;27271;45.412;10.852;2022-07-10T14:41:19;34.30;41.70
41547;DHT22;27271;45.412;10.852;2022-07-10T14:44:41;34.20;42.50
41547;DHT22;27271;45.412;10.852;2022-07-10T14:48:04;34.40;41.50
41547;DHT22;27271;45.412;10.852;2022-07-10T14:51:27;34.50;41.80
41547;DHT22;27271;45.412;10.852;2022-07-10T14:54:49;35.10;40.70
41547;DHT22;27271;45.412;10.852;2022-07-10T14:58:12;35.30;41.10
41547;DHT22;27271;45.412;10.852;2022-07-10T15:01:34;34.90;41.40
41547;DHT22;27271;45.412;10.852;2022-07-10T15:04:57;34.70;41.10
41547;DHT22;27271;45.412;10.852;2022-07-10T15:08:20;34.60;41.00
41547;DHT22;27271;45.412;10.852;2022-07-10T15:11:42;34.80;41.00
41547;DHT22;27271;45.412;10.852;2022-07-10T15:15:05;35.00;39.50
41547;DHT22;27271;45.412;10.852;2022-07-10T15:18:31;35.50;39.40
41547;DHT22;27271;45.412;10.852;2022-07-10T15:22:05;35.60;40.30
41547;DHT22;27271;45.412;10.852;2022-07-10T15:25:42;36.00;39.20
41547;DHT22;27271;45.412;10.852;2022-07-10T15:29:04;36.30;38.80
41547;DHT22;27271;45.412;10.852;2022-07-10T15:32:26;36.30;39.10
41547;DHT22;27271;45.412;10.852;2022-07-10T15:35:48;36.40;39.00
41547;DHT22;27271;45.412;10.852;2022-07-10T15:39:10;36.30;40.20
41547;DHT22;27271;45.412;10.852;2022-07-10T15:42:32;36.70;40.10
41547;DHT22;27271;45.412;10.852;2022-07-10T15:45:54;36.80;39.20
41547;DHT22;27271;45.412;10.852;2022-07-10T15:49:16;36.60;39.90
41547;DHT22;27271;45.412;10.852;2022-07-10T15:52:38;36.60;38.00
41547;DHT22;27271;45.412;10.852;2022-07-10T15:56:01;36.60;37.80
41547;DHT22;27271;45.412;10.852;2022-07-10T15:59:24;36.20;39.30
41547;DHT22;27271;45.412;10.852;2022-07-10T16:02:46;36.30;40.00
41547;DHT22;27271;45.412;10.852;2022-07-10T16:06:13;36.70;38.70
41547;DHT22;27271;45.412;10.852;2022-07-10T16:09:37;36.60;38.50
41547;DHT22;27271;45.412;10.852;2022-07-10T16:12:59;36.60;38.80
41547;DHT22;27271;45.412;10.852;2022-07-10T16:16:26;36.50;39.70
41547;DHT22;27271;45.412;10.852;2022-07-10T16:19:52;36.30;37.50
41547;DHT22;27271;45.412;10.852;2022-07-10T16:23:18;36.00;37.60
41547;DHT22;27271;45.412;10.852;2022-07-10T16:26:40;36.10;37.00
41547;DHT22;27271;45.412;10.852;2022-07-10T16:30:09;36.00;36.60
41547;DHT22;27271;45.412;10.852;2022-07-10T16:33:32;35.80;37.10
41547;DHT22;27271;45.412;10.852;2022-07-10T16:36:54;35.20;38.10
41547;DHT22;27271;45.412;10.852;2022-07-10T16:40:17;34.90;39.00
41547;DHT22;27271;45.412;10.852;2022-07-10T16:43:39;34.60;39.60
41547;DHT22;27271;45.412;10.852;2022-07-10T16:47:01;34.30;38.90
41547;DHT22;27271;45.412;10.852;2022-07-10T16:50:23;33.60;39.60
41547;DHT22;27271;45.412;10.852;2022-07-10T16:53:45;33.20;40.00
41547;DHT22;27271;45.412;10.852;2022-07-10T16:57:27;33.00;40.90
41547;DHT22;27271;45.412;10.852;2022-07-10T17:00:49;33.00;41.60
41547;DHT22;27271;45.412;10.852;2022-07-10T17:04:11;33.00;39.60
41547;DHT22;27271;45.412;10.852;2022-07-10T17:07:34;32.70;40.20
41547;DHT22;27271;45.412;10.852;2022-07-10T17:10:56;32.90;39.20
41547;DHT22;27271;45.412;10.852;2022-07-10T17:14:18;32.90;39.30
41547;DHT22;27271;45.412;10.852;2022-07-10T17:17:41;32.80;39.40
41547;DHT22;27271;45.412;10.852;2022-07-10T17:21:03;32.90;39.60
41547;DHT22;27271;45.412;10.852;2022-07-10T17:24:26;32.90;38.70
41547;DHT22;27271;45.412;10.852;2022-07-10T17:27:49;33.00;39.10
41547;DHT22;27271;45.412;10.852;2022-07-10T17:31:11;32.80;39.60
41547;DHT22;27271;45.412;10.852;2022-07-10T17:34:34;32.60;39.80
41547;DHT22;27271;45.412;10.852;2022-07-10T17:37:56;32.10;40.00
41547;DHT22;27271;45.412;10.852;2022-07-10T17:41:18;31.90;41.60
41547;DHT22;27271;45.412;10.852;2022-07-10T17:44:41;31.70;41.90
41547;DHT22;27271;45.412;10.852;2022-07-10T17:48:05;31.40;41.50
41547;DHT22;27271;45.412;10.852;2022-07-10T17:51:28;31.30;42.90
41547;DHT22;27271;45.412;10.852;2022-07-10T17:54:50;31.10;45.10
41547;DHT22;27271;45.412;10.852;2022-07-10T17:58:12;31.00;43.00
41547;DHT22;27271;45.412;10.852;2022-07-10T18:01:35;31.10;43.50
41547;DHT22;27271;45.412;10.852;2022-07-10T18:04:57;30.90;43.80
41547;DHT22;27271;45.412;10.852;2022-07-10T18:08:20;30.70;44.20
41547;DHT22;27271;45.412;10.852;2022-07-10T18:11:43;30.60;44.70
41547;DHT22;27271;45.412;10.852;2022-07-10T18:15:07;30.40;46.00
41547;DHT22;27271;45.412;10.852;2022-07-10T18:18:59;30.30;46.90
41547;DHT22;27271;45.412;10.852;2022-07-10T18:22:20;30.30;46.50
41547;DHT22;27271;45.412;10.852;2022-07-10T18:25:42;30.10;47.20
41547;DHT22;27271;45.412;10.852;2022-07-10T18:29:04;30.00;48.10
41547;DHT22;27271;45.412;10.852;2022-07-10T18:32:26;29.60;48.70
41547;DHT22;27271;45.412;10.852;2022-07-10T18:36:07;29.50;49.00
41547;DHT22;27271;45.412;10.852;2022-07-10T18:39:29;29.40;48.20
41547;DHT22;27271;45.412;10.852;2022-07-10T18:42:51;29.20;48.70
41547;DHT22;27271;45.412;10.852;2022-07-10T18:46:16;29.20;48.90
41547;DHT22;27271;45.412;10.852;2022-07-10T18:49:38;29.10;48.80
41547;DHT22;27271;45.412;10.852;2022-07-10T18:53:02;28.90;49.40
41547;DHT22;27271;45.412;10.852;2022-07-10T18:56:33;28.70;48.30
41547;DHT22;27271;45.412;10.852;2022-07-10T18:59:58;28.60;48.40
41547;DHT22;27271;45.412;10.852;2022-07-10T19:03:20;28.60;49.00
41547;DHT22;27271;45.412;10.852;2022-07-10T19:06:43;28.50;49.20
41547;DHT22;27271;45.412;10.852;2022-07-10T19:10:09;28.40;50.00
41547;DHT22;27271;45.412;10.852;2022-07-10T19:13:33;28.40;49.70
41547;DHT22;27271;45.412;10.852;2022-07-10T19:16:59;28.30;49.50
41547;DHT22;27271;45.412;10.852;2022-07-10T19:20:23;28.30;49.20
41547;DHT22;27271;45.412;10.852;2022-07-10T19:23:47;28.20;49.20
41547;DHT22;27271;45.412;10.852;2022-07-10T19:27:12;28.00;50.10
41547;DHT22;27271;45.412;10.852;2022-07-10T19:30:43;27.90;50.10
41547;DHT22;27271;45.412;10.852;2022-07-10T19:34:06;27.60;53.30
41547;DHT22;27271;45.412;10.852;2022-07-10T19:37:28;27.40;54.50
41547;DHT22;27271;45.412;10.852;2022-07-10T19:40:51;27.30;56.00
41547;DHT22;27271;45.412;10.852;2022-07-10T19:44:13;27.20;58.00
41547;DHT22;27271;45.412;10.852;2022-07-10T19:47:36;27.00;59.30
41547;DHT22;27271;45.412;10.852;2022-07-10T19:50:58;26.80;60.10
41547;DHT22;27271;45.412;10.852;2022-07-10T19:54:22;26.60;61.30
41547;DHT22;27271;45.412;10.852;2022-07-10T19:57:44;26.40;62.20
41547;DHT22;27271;45.412;10.852;2022-07-10T20:01:06;26.30;62.90
41547;DHT22;27271;45.412;10.852;2022-07-10T20:04:29;26.20;63.60
41547;DHT22;27271;45.412;10.852;2022-07-10T20:07:51;26.00;64.40
41547;DHT22;27271;45.412;10.852;2022-07-10T20:11:14;25.90;64.90
41547;DHT22;27271;45.412;10.852;2022-07-10T20:14:37;25.80;65.20
41547;DHT22;27271;45.412;10.852;2022-07-10T20:18:03;25.70;65.70
41547;DHT22;27271;45.412;10.852;2022-07-10T20:21:27;25.60;66.30
41547;DHT22;27271;45.412;10.852;2022-07-10T20:24:54;25.50;66.50
41547;DHT22;27271;45.412;10.852;2022-07-10T20:28:29;25.40;66.40
41547;DHT22;27271;45.412;10.852;2022-07-10T20:31:59;25.40;66.50
41547;DHT22;27271;45.412;10.852;2022-07-10T20:35:21;25.30;66.50
41547;DHT22;27271;45.412;10.852;2022-07-10T20:38:44;25.20;66.00
41547;DHT22;27271;45.412;10.852;2022-07-10T20:42:17;25.10;66.60
41547;DHT22;27271;45.412;10.852;2022-07-10T20:45:44;25.10;66.30
41547;DHT22;27271;45.412;10.852;2022-07-10T20:49:09;25.00;65.70
41547;DHT22;27271;45.412;10.852;2022-07-10T20:52:32;25.00;65.50
41547;DHT22;27271;45.412;10.852;2022-07-10T20:56:00;25.00;65.30
41547;DHT22;27271;45.412;10.852;2022-07-10T20:59:34;24.90;65.40
41547;DHT22;27271;45.412;10.852;2022-07-10T21:03:12;24.90;64.90
41547;DHT22;27271;45.412;10.852;2022-07-10T21:06:34;24.90;64.70
41547;DHT22;27271;45.412;10.852;2022-07-10T21:09:57;24.80;64.50
41547;DHT22;27271;45.412;10.852;2022-07-10T21:13:25;24.70;64.40
41547;DHT22;27271;45.412;10.852;2022-07-10T21:16:52;24.60;64.70
41547;DHT22;27271;45.412;10.852;2022-07-10T21:20:14;24.60;66.00
41547;DHT22;27271;45.412;10.852;2022-07-10T21:23:37;24.50;66.90
41547;DHT22;27271;45.412;10.852;2022-07-10T21:27:03;24.50;67.60
41547;DHT22;27271;45.412;10.852;2022-07-10T21:30:27;24.40;68.30
41547;DHT22;27271;45.412;10.852;2022-07-10T21:33:49;24.50;69.10
41547;DHT22;27271;45.412;10.852;2022-07-10T21:37:13;24.40;69.80
41547;DHT22;27271;45.412;10.852;2022-07-10T21:40:37;24.40;71.00
41547;DHT22;27271;45.412;10.852;2022-07-10T21:44:03;24.30;72.10
41547;DHT22;27271;45.412;10.852;2022-07-10T21:47:26;24.40;72.30
41547;DHT22;27271;45.412;10.852;2022-07-10T21:50:50;24.40;72.20
41547;DHT22;27271;45.412;10.852;2022-07-10T21:54:14;24.40;71.60
41547;DHT22;27271;45.412;10.852;2022-07-10T21:57:42;24.40;72.10
41547;DHT22;27271;45.412;10.852;2022-07-10T22:01:05;24.30;71.90
41547;DHT22;27271;45.412;10.852;2022-07-10T22:04:32;24.30;70.40
41547;DHT22;27271;45.412;10.852;2022-07-10T22:07:54;24.30;70.10
41547;DHT22;27271;45.412;10.852;2022-07-10T22:11:16;24.30;69.70
41547;DHT22;27271;45.412;10.852;2022-07-10T22:14:38;24.30;68.90